createdAt,value
2018-12-29T00:01:28.997Z,59.70
2018-12-29T00:03:57.457Z,62.20
2018-12-29T00:06:25.910Z,61.13
2018-12-29T00:08:54.403Z,58.93
2018-12-29T00:11:22.910Z,60.00
2018-12-29T00:13:51.327Z,60.17
2018-12-29T00:16:19.779Z,56.13
2018-12-29T00:18:48.345Z,65.50
2018-12-29T00:21:16.816Z,62.03
2018-12-29T00:23:45.309Z,66.43
2018-12-29T00:26:13.790Z,63.20
2018-12-29T00:28:42.252Z,63.17
2018-12-29T00:31:10.706Z,65.63
2018-12-29T00:33:39.160Z,64.23
2018-12-29T00:36:07.610Z,65.17
2018-12-29T00:38:36.144Z,63.20
2018-12-29T00:41:04.599Z,59.07
2018-12-29T00:43:33.046Z,59.37
2018-12-29T00:46:01.508Z,59.77
2018-12-29T00:48:29.968Z,62.87
2018-12-29T00:50:58.480Z,56.53
2018-12-29T00:53:26.977Z,60.37
2018-12-29T00:55:55.438Z,67.57
2018-12-29T00:58:23.890Z,60.80
2018-12-29T01:00:52.368Z,56.17
2018-12-29T01:03:20.818Z,53.40
2018-12-29T01:05:49.299Z,55.13
2018-12-29T01:08:17.721Z,52.77
2018-12-29T01:10:46.192Z,47.13
2018-12-29T01:13:17.672Z,52.67
2018-12-29T01:15:46.226Z,46.77
2018-12-29T01:18:14.706Z,51.50
2018-12-29T01:20:43.135Z,47.67
2018-12-29T01:23:11.547Z,51.37
2018-12-29T01:25:39.949Z,52.30
2018-12-29T01:28:08.624Z,48.30
2018-12-29T01:30:37.106Z,51.57
2018-12-29T01:33:05.547Z,55.50
2018-12-29T01:35:33.958Z,57.10
2018-12-29T01:38:02.369Z,60.83
2018-12-29T01:40:30.778Z,57.70
2018-12-29T01:42:59.192Z,58.27
2018-12-29T01:45:27.601Z,60.03
2018-12-29T01:47:56.009Z,63.30
2018-12-29T01:50:24.431Z,60.67
2018-12-29T01:52:52.852Z,57.60
2018-12-29T01:55:21.265Z,54.17
2018-12-29T01:57:49.687Z,60.67
2018-12-29T02:00:18.101Z,60.30
2018-12-29T02:02:46.612Z,60.63
2018-12-29T02:05:26.941Z,57.83
2018-12-29T02:07:55.377Z,58.93
2018-12-29T02:10:23.782Z,58.93
2018-12-29T02:12:52.189Z,56.37
2018-12-29T02:15:24.684Z,51.00
2018-12-29T02:17:50.739Z,54.53
2018-12-29T02:20:19.163Z,56.37
2018-12-29T02:22:47.582Z,56.17
2018-12-29T02:25:15.994Z,61.37
2018-12-29T02:27:44.404Z,56.53
2018-12-29T02:30:12.842Z,56.57
2018-12-29T02:32:41.244Z,53.47
2018-12-29T02:35:09.665Z,52.17
2018-12-29T02:37:38.083Z,53.90
2018-12-29T02:40:06.565Z,54.97
2018-12-29T02:42:34.983Z,58.07
2018-12-29T02:45:03.395Z,57.03
2018-12-29T02:47:31.811Z,55.57
2018-12-29T02:50:00.398Z,59.13
2018-12-29T02:52:28.806Z,57.17
2018-12-29T02:54:57.228Z,57.07
2018-12-29T02:57:25.640Z,60.20
2018-12-29T02:59:54.053Z,56.30
2018-12-29T03:02:22.457Z,59.07
2018-12-29T03:04:50.886Z,54.17
2018-12-29T03:07:19.300Z,52.50
2018-12-29T03:09:47.998Z,52.80
2018-12-29T03:12:16.414Z,55.97
2018-12-29T03:14:44.822Z,56.50
2018-12-29T03:17:13.251Z,54.33
2018-12-29T03:19:41.664Z,54.43
2018-12-29T03:22:10.098Z,49.83
2018-12-29T03:24:38.497Z,58.60
2018-12-29T03:27:06.907Z,50.47
2018-12-29T03:29:35.323Z,54.40
2018-12-29T03:32:03.743Z,49.47
2018-12-29T03:34:32.151Z,53.63
2018-12-29T03:37:00.565Z,59.07
2018-12-29T03:39:28.979Z,54.23
2018-12-29T03:41:57.385Z,47.73
2018-12-29T03:44:25.798Z,58.00
2018-12-29T03:46:54.218Z,51.53
2018-12-29T03:49:22.622Z,58.40
2018-12-29T03:51:51.044Z,57.20
2018-12-29T03:54:19.464Z,51.10
2018-12-29T03:56:47.878Z,55.73
2018-12-29T03:59:16.286Z,55.67
2018-12-29T04:01:44.707Z,55.47
2018-12-29T04:04:13.115Z,58.27
2018-12-29T04:06:41.527Z,49.40
2018-12-29T04:09:33.242Z,53.17
2018-12-29T04:12:04.889Z,49.37
2018-12-29T04:14:34.856Z,50.33
2018-12-29T04:17:03.266Z,47.13
2018-12-29T04:19:31.678Z,56.73
2018-12-29T04:22:00.113Z,50.07
2018-12-29T04:24:28.527Z,52.13
2018-12-29T04:26:56.935Z,53.50
2018-12-29T04:29:25.349Z,57.97
2018-12-29T04:31:53.765Z,55.50
2018-12-29T04:34:22.189Z,56.33
2018-12-29T04:36:50.606Z,59.90
2018-12-29T04:39:19.030Z,64.07
2018-12-29T04:41:47.445Z,63.43
2018-12-29T04:44:15.870Z,69.03
2018-12-29T04:46:44.546Z,66.83
2018-12-29T04:49:12.969Z,67.07
2018-12-29T04:51:41.385Z,64.80
2018-12-29T04:54:09.840Z,60.80
2018-12-29T04:56:38.263Z,66.90
2018-12-29T04:59:06.692Z,70.30
2018-12-29T05:01:35.101Z,68.80
2018-12-29T05:04:03.526Z,71.90
2018-12-29T05:06:31.925Z,69.17
2018-12-29T05:09:00.374Z,69.37
2018-12-29T05:11:28.783Z,66.73
2018-12-29T05:13:57.198Z,65.33
2018-12-29T05:16:25.611Z,63.47
2018-12-29T05:18:54.042Z,67.57
2018-12-29T05:21:22.453Z,74.10
2018-12-29T05:23:50.854Z,65.60
2018-12-29T05:26:19.265Z,66.47
2018-12-29T05:28:47.680Z,67.47
2018-12-29T05:31:16.098Z,71.13
2018-12-29T05:33:44.515Z,67.23
2018-12-29T05:36:12.942Z,72.87
2018-12-29T05:38:41.348Z,69.83
2018-12-29T05:41:09.778Z,68.53
2018-12-29T05:43:38.177Z,70.87
2018-12-29T05:46:06.593Z,74.40
2018-12-29T05:48:35.015Z,75.10
2018-12-29T05:51:03.450Z,66.77
2018-12-29T05:53:31.862Z,73.23
2018-12-29T05:56:00.286Z,73.20
2018-12-29T05:58:28.702Z,67.63
2018-12-29T06:00:57.374Z,71.43
2018-12-29T06:03:25.782Z,70.90
2018-12-29T06:05:54.209Z,81.27
2018-12-29T06:08:22.613Z,78.67
2018-12-29T06:10:51.039Z,75.30
2018-12-29T06:13:19.449Z,74.70
2018-12-29T06:15:47.863Z,72.80
2018-12-29T06:18:16.274Z,82.00
2018-12-29T06:20:44.677Z,77.63
2018-12-29T06:23:13.093Z,76.97
2018-12-29T06:25:41.495Z,74.97
2018-12-29T06:28:09.911Z,70.00
2018-12-29T06:30:38.313Z,74.13
2018-12-29T06:33:06.729Z,66.20
2018-12-29T06:35:35.135Z,61.73
2018-12-29T06:38:03.544Z,66.23
2018-12-29T06:40:31.959Z,64.33
2018-12-29T06:43:00.374Z,66.57
2018-12-29T06:45:28.785Z,76.53
2018-12-29T06:47:57.197Z,78.07
2018-12-29T06:50:25.615Z,75.00
2018-12-29T06:52:54.033Z,67.70
2018-12-29T06:55:22.456Z,67.47
2018-12-29T06:57:50.874Z,72.47
2018-12-29T07:00:19.281Z,62.57
2018-12-29T07:02:47.705Z,74.80
2018-12-29T07:05:16.104Z,63.97
2018-12-29T07:07:44.526Z,63.63
2018-12-29T07:10:12.934Z,65.93
2018-12-29T07:12:41.364Z,61.93
2018-12-29T07:15:09.769Z,62.73
2018-12-29T07:17:38.198Z,64.20
2018-12-29T07:20:06.615Z,63.00
2018-12-29T07:22:35.028Z,58.57
2018-12-29T07:25:03.441Z,69.37
2018-12-29T07:27:31.858Z,64.67
2018-12-29T07:30:19.678Z,76.50
2018-12-29T07:33:07.487Z,62.73
2018-12-29T07:35:55.272Z,67.80
2018-12-29T07:38:43.075Z,72.90
2018-12-29T07:41:30.881Z,68.10
2018-12-29T07:44:18.765Z,69.93
2018-12-29T07:47:06.570Z,69.65
2018-12-29T07:49:54.365Z,71.90
2018-12-29T07:52:42.156Z,64.77
2018-12-29T07:55:30.035Z,64.43
2018-12-29T07:58:17.825Z,70.90
2018-12-29T08:01:05.619Z,63.07
2018-12-29T08:03:45.910Z,65.90
2018-12-29T08:06:26.538Z,65.47
2018-12-29T08:09:07.137Z,62.57
2018-12-29T08:11:47.856Z,62.63
2018-12-29T08:14:28.532Z,70.10
2018-12-29T08:17:11.217Z,68.63
2018-12-29T08:19:52.340Z,67.83
2018-12-29T08:22:33.241Z,62.77
2018-12-29T08:25:14.349Z,62.27
2018-12-29T08:27:55.312Z,62.77
2018-12-29T08:30:36.008Z,58.70
2018-12-29T08:33:16.859Z,59.20
2018-12-29T08:35:57.581Z,58.00
2018-12-29T08:38:38.414Z,57.97
2018-12-29T08:41:19.808Z,60.10
2018-12-29T08:44:00.210Z,53.70
2018-12-29T08:46:40.831Z,52.37
2018-12-29T08:49:21.744Z,53.03
2018-12-29T08:52:02.971Z,51.93
2018-12-29T08:54:44.060Z,51.47
2018-12-29T08:57:25.036Z,54.37
2018-12-29T09:00:08.539Z,53.63
2018-12-29T09:02:49.708Z,53.40
2018-12-29T09:05:30.325Z,50.13
2018-12-29T09:08:11.156Z,50.33
2018-12-29T09:10:52.201Z,52.37
2018-12-29T09:13:33.255Z,51.13
2018-12-29T09:16:14.316Z,50.43
2018-12-29T09:18:54.926Z,51.60
2018-12-29T09:21:35.652Z,53.53
2018-12-29T09:24:16.625Z,52.93
2018-12-29T09:26:57.498Z,56.23
2018-12-29T09:29:38.656Z,51.00
2018-12-29T09:32:19.499Z,48.73
2018-12-29T09:35:00.384Z,51.37
2018-12-29T09:37:41.146Z,48.63
2018-12-29T09:40:22.259Z,47.63
2018-12-29T09:43:03.126Z,45.83
2018-12-29T09:45:43.700Z,49.67
2018-12-29T09:48:23.958Z,50.27
2018-12-29T09:51:04.876Z,44.63
2018-12-29T09:53:45.619Z,46.80
2018-12-29T09:56:26.660Z,41.63
2018-12-29T09:59:07.345Z,43.70
2018-12-29T10:01:48.344Z,45.40
2018-12-29T10:04:28.839Z,45.10
2018-12-29T10:07:09.774Z,43.20
2018-12-29T10:09:50.628Z,46.50
2018-12-29T10:12:31.450Z,40.70
2018-12-29T10:15:12.270Z,37.60
2018-12-29T10:17:52.974Z,43.37
2018-12-29T10:20:33.934Z,43.10
2018-12-29T10:23:14.795Z,39.07
2018-12-29T10:25:55.403Z,36.40
2018-12-29T10:28:36.042Z,34.10
2018-12-29T10:31:17.001Z,34.70
2018-12-29T10:33:57.572Z,36.63
2018-12-29T10:36:38.288Z,34.50
2018-12-29T10:39:20.161Z,37.63
2018-12-29T10:42:01.207Z,44.63
2018-12-29T10:44:42.119Z,40.07
2018-12-29T10:47:22.990Z,35.97
2018-12-29T10:50:03.687Z,33.87
2018-12-29T10:52:44.832Z,34.07
2018-12-29T10:55:25.579Z,30.43
2018-12-29T10:58:06.508Z,29.03
2018-12-29T11:00:47.748Z,33.87
2018-12-29T11:03:28.698Z,31.33
2018-12-29T11:06:09.134Z,32.43
2018-12-29T11:08:50.221Z,29.07
2018-12-29T11:11:30.910Z,28.20
2018-12-29T11:14:11.852Z,26.67
2018-12-29T11:16:52.696Z,25.63
2018-12-29T11:19:33.660Z,25.80
2018-12-29T11:22:14.277Z,29.07
2018-12-29T11:24:55.068Z,26.27
2018-12-29T11:27:35.843Z,23.23
2018-12-29T11:30:16.805Z,25.07
2018-12-29T11:32:57.229Z,24.07
2018-12-29T11:35:38.195Z,25.57
2018-12-29T11:38:18.855Z,23.63
2018-12-29T11:40:59.734Z,26.80
2018-12-29T11:43:40.539Z,23.93
2018-12-29T11:46:21.289Z,24.77
2018-12-29T11:49:02.328Z,22.70
2018-12-29T11:51:43.180Z,24.17
2018-12-29T11:54:25.312Z,20.37
2018-12-29T11:57:06.942Z,24.20
2018-12-29T11:59:47.652Z,22.70
2018-12-29T12:02:28.525Z,25.13
2018-12-29T12:05:09.560Z,25.23
2018-12-29T12:07:50.554Z,25.67
2018-12-29T12:10:31.346Z,24.20
2018-12-29T12:13:12.049Z,25.47
2018-12-29T12:15:52.686Z,27.73
2018-12-29T12:18:33.239Z,24.93
2018-12-29T12:21:14.224Z,26.00
2018-12-29T12:23:55.087Z,22.97
2018-12-29T12:26:35.952Z,21.37
2018-12-29T12:29:16.813Z,24.83
2018-12-29T12:31:57.627Z,26.10
2018-12-29T12:34:38.588Z,23.30
2018-12-29T12:37:19.778Z,25.70
2018-12-29T12:40:00.552Z,26.33
2018-12-29T12:42:41.373Z,26.67
2018-12-29T12:45:22.323Z,28.47
2018-12-29T12:48:05.274Z,28.63
2018-12-29T12:50:45.662Z,27.47
2018-12-29T12:53:26.352Z,27.20
2018-12-29T12:56:07.033Z,30.97
2018-12-29T12:58:47.759Z,25.17
2018-12-29T13:01:28.552Z,26.27
2018-12-29T13:04:09.558Z,25.73
2018-12-29T13:06:50.128Z,25.70
2018-12-29T13:09:30.657Z,24.57
2018-12-29T13:12:11.215Z,24.57
2018-12-29T13:14:52.053Z,23.20
2018-12-29T13:17:32.766Z,23.83
2018-12-29T13:20:13.564Z,27.33
2018-12-29T13:22:54.671Z,27.97
2018-12-29T13:25:35.434Z,25.60
2018-12-29T13:28:16.186Z,24.57
2018-12-29T13:30:56.838Z,28.37
2018-12-29T13:33:38.040Z,28.03
2018-12-29T13:36:18.463Z,28.20
2018-12-29T13:38:59.211Z,28.47
2018-12-29T13:41:39.648Z,30.37
2018-12-29T13:44:20.554Z,28.37
2018-12-29T13:47:01.203Z,29.40
2018-12-29T13:49:41.880Z,26.77
2018-12-29T13:52:22.630Z,26.97
2018-12-29T13:55:03.384Z,26.60
2018-12-29T13:57:43.901Z,25.80
2018-12-29T14:00:24.878Z,29.30
2018-12-29T14:03:05.404Z,28.83
2018-12-29T14:11:44.203Z,30.30
2018-12-29T14:14:24.994Z,30.67
2018-12-29T14:23:30.468Z,24.97
2018-12-29T14:26:11.349Z,27.80
2018-12-29T14:28:52.271Z,26.30
2018-12-29T14:31:33.047Z,25.67
2018-12-29T14:34:13.911Z,30.27
2018-12-29T14:36:54.523Z,26.67
2018-12-29T14:39:35.703Z,25.00
2018-12-29T14:45:36.051Z,30.40
2018-12-29T14:48:16.484Z,29.90
2018-12-29T14:50:56.925Z,32.63
2018-12-29T14:53:38.194Z,29.87
2018-12-29T14:59:26.611Z,32.90
2018-12-29T15:02:07.319Z,33.27
2018-12-29T15:04:48.053Z,32.83
2018-12-29T15:07:28.787Z,32.97
2018-12-29T15:10:09.301Z,33.37
2018-12-29T15:12:49.991Z,31.47
2018-12-29T15:15:30.661Z,32.57
2018-12-29T15:18:11.531Z,29.73
2018-12-29T15:20:52.467Z,29.93
2018-12-29T15:23:33.192Z,35.53
2018-12-29T15:26:14.630Z,33.73
2018-12-29T15:28:54.986Z,32.37
2018-12-29T15:31:35.798Z,31.60
2018-12-29T15:34:16.714Z,31.03
2018-12-29T15:36:57.505Z,34.70
2018-12-29T15:39:38.332Z,36.10
2018-12-29T15:42:19.240Z,34.33
2018-12-29T15:44:59.707Z,38.03
2018-12-29T15:47:40.605Z,33.97
2018-12-29T15:50:21.406Z,38.07
2018-12-29T15:53:03.122Z,39.07
2018-12-29T15:55:43.872Z,36.93
2018-12-29T15:58:24.617Z,40.07
2018-12-29T16:01:05.305Z,43.47
2018-12-29T16:03:45.896Z,45.97
2018-12-29T16:06:26.698Z,51.20
2018-12-29T16:09:07.630Z,48.53
2018-12-29T16:11:48.865Z,48.20
2018-12-29T16:14:35.438Z,47.00
2018-12-29T16:17:12.070Z,46.83
2018-12-29T16:19:52.971Z,46.53
2018-12-29T16:22:33.659Z,49.53
2018-12-29T16:25:14.229Z,49.53
2018-12-29T16:27:55.168Z,49.50
2018-12-29T16:30:36.115Z,51.97
2018-12-29T16:33:16.672Z,55.83
2018-12-29T16:35:57.434Z,52.83
2018-12-29T16:38:37.897Z,51.23
2018-12-29T16:41:18.619Z,56.97
2018-12-29T16:43:59.676Z,53.73
2018-12-29T16:46:40.636Z,57.40
2018-12-29T16:49:40.920Z,57.60
2018-12-29T16:55:46.223Z,65.43
2018-12-29T17:04:55.896Z,62.80
2018-12-29T17:13:57.704Z,56.87
2018-12-29T17:16:38.345Z,57.10
2018-12-29T17:19:18.942Z,58.60
2018-12-29T17:25:10.394Z,55.17
2018-12-29T17:31:39.850Z,52.37
2018-12-29T17:37:56.724Z,54.40
2018-12-29T17:40:44.615Z,58.00
2018-12-29T17:43:32.492Z,51.53
2018-12-29T17:46:56.302Z,51.73
2018-12-29T17:50:23.415Z,57.10
2018-12-29T17:53:11.307Z,53.87
2018-12-29T17:56:17.255Z,61.47
2018-12-29T17:59:42.489Z,56.33
2018-12-29T18:08:47.427Z,48.30
2018-12-29T18:14:52.710Z,48.63
2018-12-29T18:17:33.753Z,52.47
2018-12-29T18:23:33.668Z,47.87
2018-12-29T18:26:02.274Z,53.70
2018-12-29T18:28:30.827Z,47.87
2018-12-29T18:30:59.375Z,51.07
2018-12-29T18:33:27.921Z,45.13
2018-12-29T18:35:56.763Z,46.87
2018-12-29T18:38:25.313Z,39.97
2018-12-29T18:40:53.858Z,39.43
2018-12-29T18:43:22.423Z,42.10
2018-12-29T18:45:50.989Z,40.73
2018-12-29T18:48:19.539Z,43.47
2018-12-29T18:50:48.386Z,39.70
2018-12-29T18:53:16.957Z,38.07
2018-12-29T18:55:45.506Z,42.03
2018-12-29T18:58:14.067Z,39.53
2018-12-29T19:00:42.600Z,36.97
2018-12-29T19:03:11.474Z,39.20
2018-12-29T19:05:40.005Z,37.90
2018-12-29T19:08:08.546Z,40.60
2018-12-29T19:10:37.344Z,44.10
2018-12-29T19:13:06.086Z,40.80
2018-12-29T19:15:35.191Z,40.17
2018-12-29T19:18:03.768Z,47.17
2018-12-29T19:20:32.624Z,38.30
2018-12-29T19:23:01.356Z,36.27
2018-12-29T19:25:30.222Z,44.90
2018-12-29T19:27:58.944Z,35.30
2018-12-29T19:30:27.697Z,44.63
2018-12-29T19:32:56.432Z,35.70
2018-12-29T19:35:24.981Z,35.43
2018-12-29T19:37:53.780Z,38.77
2018-12-29T19:40:22.323Z,43.13
2018-12-29T19:42:51.208Z,39.43
2018-12-29T19:45:19.822Z,45.87
2018-12-29T19:47:49.440Z,41.40
2018-12-29T19:50:18.290Z,42.27
2018-12-29T19:52:46.867Z,36.40
2018-12-29T19:55:15.432Z,33.97
2018-12-29T19:57:44.146Z,32.30
2018-12-29T20:00:12.715Z,34.60
2018-12-29T20:02:42.390Z,37.53
2018-12-29T20:05:11.260Z,34.37
2018-12-29T20:07:39.770Z,31.50
2018-12-29T20:10:08.528Z,32.57
2018-12-29T20:12:37.150Z,33.57
2018-12-29T20:15:06.226Z,33.43
2018-12-29T20:17:35.325Z,31.53
2018-12-29T20:20:04.658Z,35.00
2018-12-29T20:22:33.189Z,36.83
2018-12-29T20:25:01.659Z,37.17
2018-12-29T20:27:30.211Z,36.97
2018-12-29T20:29:59.337Z,39.93
2018-12-29T20:32:27.881Z,32.87
2018-12-29T20:34:56.679Z,32.30
2018-12-29T20:37:25.224Z,32.83
2018-12-29T20:39:53.770Z,35.60
2018-12-29T20:42:22.308Z,37.30
2018-12-29T20:44:50.841Z,41.47
2018-12-29T20:47:19.397Z,37.23
2018-12-29T20:49:48.044Z,37.97
2018-12-29T20:52:16.545Z,47.33
2018-12-29T20:54:45.431Z,43.77
2018-12-29T20:57:14.264Z,39.77
2018-12-29T20:59:42.831Z,40.80
2018-12-29T21:02:11.371Z,34.67
2018-12-29T21:04:39.908Z,44.03
2018-12-29T21:07:08.418Z,35.10
2018-12-29T21:09:36.964Z,33.00
2018-12-29T21:12:05.481Z,31.53
2018-12-29T21:14:34.028Z,32.10
2018-12-29T21:17:02.580Z,32.97
2018-12-29T21:19:31.085Z,34.33
2018-12-29T21:21:59.635Z,34.10
2018-12-29T21:24:28.465Z,29.80
2018-12-29T21:26:57.022Z,27.27
2018-12-29T21:29:25.563Z,30.03
2018-12-29T21:31:54.125Z,27.23
2018-12-29T21:34:22.654Z,26.80
2018-12-29T21:36:51.186Z,26.77
2018-12-29T21:39:19.917Z,26.87
2018-12-29T21:41:48.427Z,25.97
2018-12-29T21:44:16.973Z,28.17
2018-12-29T21:46:45.505Z,30.03
2018-12-29T21:49:14.044Z,27.70
2018-12-29T21:51:42.577Z,24.17
2018-12-29T21:54:11.127Z,25.33
2018-12-29T21:56:39.651Z,25.47
2018-12-29T21:59:08.197Z,24.00
2018-12-29T22:01:36.723Z,24.40
2018-12-29T22:04:05.259Z,27.47
2018-12-29T22:06:33.993Z,25.00
2018-12-29T22:09:02.515Z,24.43
2018-12-29T22:11:31.053Z,24.27
2018-12-29T22:13:59.585Z,25.27
2018-12-29T22:16:28.118Z,24.13
2018-12-29T22:18:56.650Z,22.90
2018-12-29T22:21:25.196Z,22.07
2018-12-29T22:23:53.744Z,23.97
2018-12-29T22:26:22.289Z,25.37
2018-12-29T22:28:50.789Z,23.37
2018-12-29T22:31:19.321Z,23.27
2018-12-29T22:33:48.156Z,23.93
2018-12-29T22:36:16.697Z,23.20
2018-12-29T22:38:45.236Z,26.37
2018-12-29T22:41:13.763Z,25.50
2018-12-29T22:43:42.302Z,25.40
2018-12-29T22:46:10.826Z,27.67
2018-12-29T22:48:39.453Z,26.60
2018-12-29T22:51:07.990Z,27.40
2018-12-29T22:53:36.515Z,27.53
2018-12-29T22:56:05.048Z,29.67
2018-12-29T22:58:33.607Z,26.17
2018-12-29T23:01:02.336Z,28.03
2018-12-29T23:03:31.258Z,26.33
2018-12-29T23:05:59.801Z,26.77
2018-12-29T23:08:28.343Z,27.57
2018-12-29T23:10:57.178Z,23.83
2018-12-29T23:13:25.722Z,23.17
2018-12-29T23:15:54.269Z,22.67
2018-12-29T23:18:22.811Z,24.00
2018-12-29T23:20:51.337Z,23.77
2018-12-29T23:23:19.865Z,22.30
2018-12-29T23:25:48.593Z,23.80
2018-12-29T23:28:17.125Z,21.70
2018-12-29T23:30:45.661Z,21.80
2018-12-29T23:33:14.206Z,21.43
2018-12-29T23:35:42.745Z,21.27
2018-12-29T23:38:11.593Z,20.43
2018-12-29T23:40:40.121Z,19.73
2018-12-29T23:43:08.666Z,22.50
2018-12-29T23:45:37.392Z,22.50
2018-12-29T23:48:05.917Z,19.80
2018-12-29T23:50:34.465Z,20.17
2018-12-29T23:53:03.200Z,22.53
2018-12-29T23:55:31.938Z,24.77
2018-12-29T23:58:00.459Z,22.87
